Nashua, NH

6:32 PM EDT on March 26, 2015 (GMT -0400)
Fitchburg Municipal | | Change Station
CLOSE
Current Station
Airport
Location: Fitchburg,
Elevation: 348 ft
Nearby Weather Stations

Elev 348 ft 42.55 °N, 71.76 °W | Updated 32 minutes ago

Overcast
Overcast
45 °F
Feels Like 45 °F
N
0
Wind Variable Wind from North

Today
High -- | Low -- °F
--% Chance of Precip.
Yesterday
High -- | Low -- °F
Precip. -- in
6:39 AM 7:04 PM
Waxing Crescent, 46% visible
Pressure 29.65 in
Visibility 0.8 miles
Clouds Overcast 900 ft
Dew Point 44 °F
Humidity 97%
Rainfall 0.23 in
Snow Depth Not available.
UV 0 out of 12
Pollen 1.40 out of 12
Air Quality Not available.
Flu Activity Not available.
SPECI KFIT 262200Z AUTO 00000KT 3/4SM -RA BR OVC009 07/07 A2965 RMK AO2 CIG 007V014 P0001 T00720067

More Conditions Fewer Conditions

Pressure 29.65 in
Visibility 0.8 miles
Clouds Overcast 900 ft
Dew Point 44 °F
Humidity 97%
Rainfall 0.23 in
Snow Depth Not available.
UV 0 out of 12
Pollen 1.40 out of 12
Air Quality Not available.
Flu Activity Not available.
SPECI KFIT 262200Z AUTO 00000KT 3/4SM -RA BR OVC009 07/07 A2965 RMK AO2 CIG 007V014 P0001 T00720067

More Conditions Fewer Conditions

10-Day Weather Forecast

Almanac

Astronomy

Mar. 26, 2015 Rise Set
Actual Time
Civil Twilight
Nautical Twilight
Astronomical Twilight
Moon
Length of Visible Light
Length of Day
Tomorrow will be .
, % of the Moon is Illuminated

Today's Extremes

State Highs State Lows

Community

WunderPhotos

Upload Photos

1,808,628 photos uploaded!

WunderBlogs® & News

Nearby

Air Quality

  Air Quality AQ Index Pollutant
Not available.

Snow Depth

Station Depth Elevation

Earthquake Activity

City Distance Mag. Time & Date
Minimum magnitude displayed is 2.5.

Coastal Water Temperatures

Place Temperature

Stations

Nearby Weather Stations

Station Location Temp. Windchill Dew Point Humidity Wind Precip. Elev Updated Type